Keswick, Iowa
Current Conditions -  °F | °C
As of 12:55 PM on Friday 31 Oct 2014 (Local Time) from KOOA Reporting Station
Clear Clear  
Wind Chill: 31°   Ceiling: Unl
Heat Index: 40°   Visibility: 10mi
Dew Point: 20°   Wind: 18mph
Humidity: 44%   Direction: 360°N
Pressure: 30.44"   Gusts: 24mph
Location:  41.45°N, 92.24°W
Report Text: KOOA 311755Z AUTO 36016G21KT 10SM CLR 04/M07 A3044 RMK AO2 T00431069 10043 21018
Loading
Personal Weather Stations






























Interactive Weather Map
Tropical Storm Tracking
New forecast layout! Learn more

10-Day Weather Forecast

Advertisements
Track Severe Weather on mobile